sensor_id;sensor_type;location;lat;lon;timestamp;pressure;altitude;pressure_sealevel;temperature;humidity
48652;BME280;34442;52.362;-1.302;2023-04-10T00:00:07;100033.44;;;11.45;100.00
48652;BME280;34442;52.362;-1.302;2023-04-10T00:02:34;100028.72;;;11.40;100.00
48652;BME280;34442;52.362;-1.302;2023-04-10T00:05:00;100032.00;;;11.42;100.00
48652;BME280;34442;52.362;-1.302;2023-04-10T00:07:25;100023.34;;;11.40;100.00
48652;BME280;34442;52.362;-1.302;2023-04-10T00:09:52;100018.53;;;11.42;100.00
48652;BME280;34442;52.362;-1.302;2023-04-10T00:12:17;100014.66;;;11.38;100.00
48652;BME280;34442;52.362;-1.302;2023-04-10T00:14:43;100001.72;;;11.29;100.00
48652;BME280;34442;52.362;-1.302;2023-04-10T00:17:09;99998.13;;;11.35;100.00
48652;BME280;34442;52.362;-1.302;2023-04-10T00:19:34;99998.59;;;11.32;100.00
48652;BME280;34442;52.362;-1.302;2023-04-10T00:22:00;99993.19;;;11.32;100.00
48652;BME280;34442;52.362;-1.302;2023-04-10T00:24:25;99993.97;;;11.14;100.00
48652;BME280;34442;52.362;-1.302;2023-04-10T00:26:51;99995.81;;;11.13;100.00
48652;BME280;34442;52.362;-1.302;2023-04-10T00:29:16;99981.94;;;11.16;100.00
48652;BME280;34442;52.362;-1.302;2023-04-10T00:31:42;99975.00;;;11.02;100.00
48652;BME280;34442;52.362;-1.302;2023-04-10T00:34:07;99979.28;;;11.10;100.00
48652;BME280;34442;52.362;-1.302;2023-04-10T00:36:33;99977.88;;;11.07;100.00
48652;BME280;34442;52.362;-1.302;2023-04-10T00:38:59;99961.22;;;10.99;100.00
48652;BME280;34442;52.362;-1.302;2023-04-10T00:41:25;99958.72;;;10.97;100.00
48652;BME280;34442;52.362;-1.302;2023-04-10T00:43:54;99952.34;;;10.91;100.00
48652;BME280;34442;52.362;-1.302;2023-04-10T00:46:21;99943.13;;;10.81;100.00
48652;BME280;34442;52.362;-1.302;2023-04-10T00:48:47;99943.78;;;10.76;100.00
48652;BME280;34442;52.362;-1.302;2023-04-10T00:51:12;99940.50;;;10.74;100.00
48652;BME280;34442;52.362;-1.302;2023-04-10T00:53:38;99933.91;;;10.70;100.00
48652;BME280;34442;52.362;-1.302;2023-04-10T00:56:04;99930.22;;;10.64;100.00
48652;BME280;34442;52.362;-1.302;2023-04-10T00:58:30;99933.53;;;10.66;100.00
48652;BME280;34442;52.362;-1.302;2023-04-10T01:00:55;99935.19;;;10.61;100.00
48652;BME280;34442;52.362;-1.302;2023-04-10T01:03:21;99927.63;;;10.51;100.00
48652;BME280;34442;52.362;-1.302;2023-04-10T01:06:04;99918.25;;;10.60;100.00
48652;BME280;34442;52.362;-1.302;2023-04-10T01:08:48;99917.03;;;10.56;100.00
48652;BME280;34442;52.362;-1.302;2023-04-10T01:11:29;99914.97;;;10.58;100.00
48652;BME280;34442;52.362;-1.302;2023-04-10T01:17:17;99899.94;;;10.51;100.00
48652;BME280;34442;52.362;-1.302;2023-04-10T01:19:57;99899.31;;;10.49;100.00
48652;BME280;34442;52.362;-1.302;2023-04-10T01:22:34;99895.41;;;10.44;100.00
48652;BME280;34442;52.362;-1.302;2023-04-10T01:25:16;99888.41;;;10.43;100.00
48652;BME280;34442;52.362;-1.302;2023-04-10T01:30:27;99889.44;;;10.42;100.00
48652;BME280;34442;52.362;-1.302;2023-04-10T01:32:58;99882.88;;;10.38;100.00
48652;BME280;34442;52.362;-1.302;2023-04-10T01:35:24;99872.13;;;10.38;100.00
48652;BME280;34442;52.362;-1.302;2023-04-10T01:37:52;99872.34;;;10.37;100.00
48652;BME280;34442;52.362;-1.302;2023-04-10T01:40:18;99869.03;;;10.35;100.00
48652;BME280;34442;52.362;-1.302;2023-04-10T01:42:50;99861.41;;;10.32;100.00
48652;BME280;34442;52.362;-1.302;2023-04-10T01:45:23;99850.88;;;10.30;100.00
48652;BME280;34442;52.362;-1.302;2023-04-10T01:47:50;99853.75;;;10.35;100.00
48652;BME280;34442;52.362;-1.302;2023-04-10T01:50:16;99845.41;;;10.43;100.00
48652;BME280;34442;52.362;-1.302;2023-04-10T01:52:43;99842.16;;;10.35;100.00
48652;BME280;34442;52.362;-1.302;2023-04-10T01:55:09;99838.03;;;10.32;100.00
48652;BME280;34442;52.362;-1.302;2023-04-10T01:57:35;99832.03;;;10.37;100.00
48652;BME280;34442;52.362;-1.302;2023-04-10T02:00:04;99835.56;;;10.37;100.00
48652;BME280;34442;52.362;-1.302;2023-04-10T02:02:33;99838.81;;;10.39;100.00
48652;BME280;34442;52.362;-1.302;2023-04-10T02:04:59;99840.31;;;10.35;100.00
48652;BME280;34442;52.362;-1.302;2023-04-10T02:07:45;99823.25;;;10.48;100.00
48652;BME280;34442;52.362;-1.302;2023-04-10T02:10:24;99823.91;;;10.43;100.00
48652;BME280;34442;52.362;-1.302;2023-04-10T02:12:54;99827.22;;;10.46;100.00
48652;BME280;34442;52.362;-1.302;2023-04-10T02:15:26;99824.56;;;10.39;100.00
48652;BME280;34442;52.362;-1.302;2023-04-10T02:17:55;99823.53;;;10.40;100.00
48652;BME280;34442;52.362;-1.302;2023-04-10T02:20:23;99819.88;;;10.34;100.00
48652;BME280;34442;52.362;-1.302;2023-04-10T02:22:49;99824.97;;;10.42;100.00
48652;BME280;34442;52.362;-1.302;2023-04-10T02:25:15;99813.59;;;10.40;100.00
48652;BME280;34442;52.362;-1.302;2023-04-10T02:27:41;99813.78;;;10.46;100.00
48652;BME280;34442;52.362;-1.302;2023-04-10T02:30:07;99806.16;;;10.42;100.00
48652;BME280;34442;52.362;-1.302;2023-04-10T02:32:33;99809.81;;;10.48;100.00
48652;BME280;34442;52.362;-1.302;2023-04-10T02:34:59;99809.00;;;10.48;100.00
48652;BME280;34442;52.362;-1.302;2023-04-10T02:37:25;99805.50;;;10.47;100.00
48652;BME280;34442;52.362;-1.302;2023-04-10T02:39:51;99800.53;;;10.44;100.00
48652;BME280;34442;52.362;-1.302;2023-04-10T02:42:17;99800.38;;;10.39;100.00
48652;BME280;34442;52.362;-1.302;2023-04-10T02:44:43;99795.84;;;10.39;100.00
48652;BME280;34442;52.362;-1.302;2023-04-10T02:47:09;99793.31;;;10.44;100.00
48652;BME280;34442;52.362;-1.302;2023-04-10T02:49:34;99790.03;;;10.42;100.00
48652;BME280;34442;52.362;-1.302;2023-04-10T02:52:00;99791.63;;;10.50;100.00
48652;BME280;34442;52.362;-1.302;2023-04-10T02:54:26;99787.88;;;10.51;100.00
48652;BME280;34442;52.362;-1.302;2023-04-10T02:56:51;99773.00;;;10.49;100.00
48652;BME280;34442;52.362;-1.302;2023-04-10T02:59:16;99771.53;;;10.53;100.00
48652;BME280;34442;52.362;-1.302;2023-04-10T03:01:42;99767.81;;;10.54;100.00
48652;BME280;34442;52.362;-1.302;2023-04-10T03:04:07;99756.78;;;10.62;100.00
48652;BME280;34442;52.362;-1.302;2023-04-10T03:06:33;99753.09;;;10.56;100.00
48652;BME280;34442;52.362;-1.302;2023-04-10T03:08:58;99746.09;;;10.55;100.00
48652;BME280;34442;52.362;-1.302;2023-04-10T03:11:24;99738.63;;;10.32;100.00
48652;BME280;34442;52.362;-1.302;2023-04-10T03:13:49;99732.06;;;10.28;100.00
48652;BME280;34442;52.362;-1.302;2023-04-10T03:16:15;99724.06;;;10.22;100.00
48652;BME280;34442;52.362;-1.302;2023-04-10T03:18:42;99720.59;;;10.14;100.00
48652;BME280;34442;52.362;-1.302;2023-04-10T03:21:07;99712.78;;;10.13;100.00
48652;BME280;34442;52.362;-1.302;2023-04-10T03:23:33;99712.50;;;10.21;100.00
48652;BME280;34442;52.362;-1.302;2023-04-10T03:25:58;99705.00;;;10.48;100.00
48652;BME280;34442;52.362;-1.302;2023-04-10T03:28:25;99708.31;;;10.50;100.00
48652;BME280;34442;52.362;-1.302;2023-04-10T03:30:51;99699.63;;;10.48;100.00
48652;BME280;34442;52.362;-1.302;2023-04-10T03:33:17;99704.34;;;10.53;100.00
48652;BME280;34442;52.362;-1.302;2023-04-10T03:35:44;99704.50;;;10.58;100.00
48652;BME280;34442;52.362;-1.302;2023-04-10T03:38:10;99700.16;;;10.57;100.00
48652;BME280;34442;52.362;-1.302;2023-04-10T03:40:35;99710.53;;;10.53;100.00
48652;BME280;34442;52.362;-1.302;2023-04-10T03:43:01;99700.16;;;10.57;100.00
48652;BME280;34442;52.362;-1.302;2023-04-10T03:45:27;99698.47;;;10.62;100.00
48652;BME280;34442;52.362;-1.302;2023-04-10T03:47:52;99696.78;;;10.61;100.00
48652;BME280;34442;52.362;-1.302;2023-04-10T03:50:18;99696.97;;;10.66;100.00
48652;BME280;34442;52.362;-1.302;2023-04-10T03:52:43;99693.66;;;10.64;100.00
48652;BME280;34442;52.362;-1.302;2023-04-10T03:55:09;99685.97;;;10.68;100.00
48652;BME280;34442;52.362;-1.302;2023-04-10T03:57:34;99690.69;;;10.73;100.00
48652;BME280;34442;52.362;-1.302;2023-04-10T04:00:00;99679.41;;;10.64;100.00
48652;BME280;34442;52.362;-1.302;2023-04-10T04:02:25;99670.28;;;10.65;100.00
48652;BME280;34442;52.362;-1.302;2023-04-10T04:04:51;99669.41;;;10.71;100.00
48652;BME280;34442;52.362;-1.302;2023-04-10T04:07:16;99666.34;;;10.67;100.00
48652;BME280;34442;52.362;-1.302;2023-04-10T04:09:42;99662.41;;;10.70;100.00
48652;BME280;34442;52.362;-1.302;2023-04-10T04:12:07;99654.09;;;10.72;100.00
48652;BME280;34442;52.362;-1.302;2023-04-10T04:14:33;99656.34;;;10.75;100.00
48652;BME280;34442;52.362;-1.302;2023-04-10T04:16:58;99647.47;;;10.74;100.00
48652;BME280;34442;52.362;-1.302;2023-04-10T04:19:23;99632.59;;;10.72;100.00
48652;BME280;34442;52.362;-1.302;2023-04-10T04:21:49;99626.97;;;10.73;100.00
48652;BME280;34442;52.362;-1.302;2023-04-10T04:24:15;99627.34;;;10.77;100.00
48652;BME280;34442;52.362;-1.302;2023-04-10T04:26:40;99619.53;;;10.75;100.00
48652;BME280;34442;52.362;-1.302;2023-04-10T04:29:06;99617.97;;;10.67;100.00
48652;BME280;34442;52.362;-1.302;2023-04-10T04:31:31;99610.03;;;10.73;100.00
48652;BME280;34442;52.362;-1.302;2023-04-10T04:34:00;99605.28;;;10.75;100.00
48652;BME280;34442;52.362;-1.302;2023-04-10T04:36:26;99599.88;;;10.75;100.00
48652;BME280;34442;52.362;-1.302;2023-04-10T04:38:52;99605.97;;;10.82;100.00
48652;BME280;34442;52.362;-1.302;2023-04-10T04:41:17;99600.84;;;10.80;100.00
48652;BME280;34442;52.362;-1.302;2023-04-10T04:43:43;99610.09;;;10.84;100.00
48652;BME280;34442;52.362;-1.302;2023-04-10T04:46:09;99608.47;;;10.83;100.00
48652;BME280;34442;52.362;-1.302;2023-04-10T04:48:34;99606.97;;;10.87;100.00
48652;BME280;34442;52.362;-1.302;2023-04-10T04:51:00;99604.13;;;10.82;100.00
48652;BME280;34442;52.362;-1.302;2023-04-10T04:53:25;99589.84;;;10.82;100.00
48652;BME280;34442;52.362;-1.302;2023-04-10T04:55:51;99575.38;;;10.83;100.00
48652;BME280;34442;52.362;-1.302;2023-04-10T04:58:16;99578.19;;;10.88;100.00
48652;BME280;34442;52.362;-1.302;2023-04-10T05:00:41;99571.72;;;10.77;100.00
48652;BME280;34442;52.362;-1.302;2023-04-10T05:03:07;99568.13;;;10.83;100.00
48652;BME280;34442;52.362;-1.302;2023-04-10T05:05:32;99573.19;;;10.91;100.00
48652;BME280;34442;52.362;-1.302;2023-04-10T05:07:58;99568.03;;;10.90;100.00
48652;BME280;34442;52.362;-1.302;2023-04-10T05:10:23;99562.56;;;10.97;100.00
48652;BME280;34442;52.362;-1.302;2023-04-10T05:12:49;99557.88;;;10.92;100.00
48652;BME280;34442;52.362;-1.302;2023-04-10T05:15:14;99567.56;;;10.93;100.00
48652;BME280;34442;52.362;-1.302;2023-04-10T05:17:40;99570.03;;;10.95;100.00
48652;BME280;34442;52.362;-1.302;2023-04-10T05:20:05;99575.09;;;11.03;100.00
48652;BME280;34442;52.362;-1.302;2023-04-10T05:22:31;99572.50;;;10.96;100.00
48652;BME280;34442;52.362;-1.302;2023-04-10T05:24:58;99566.78;;;11.04;100.00
48652;BME280;34442;52.362;-1.302;2023-04-10T05:27:23;99562.22;;;11.05;100.00
48652;BME280;34442;52.362;-1.302;2023-04-10T05:29:49;99564.47;;;11.08;100.00
48652;BME280;34442;52.362;-1.302;2023-04-10T05:32:15;99565.53;;;11.07;100.00
48652;BME280;34442;52.362;-1.302;2023-04-10T05:34:40;99565.41;;;11.13;100.00
48652;BME280;34442;52.362;-1.302;2023-04-10T05:37:06;99559.78;;;11.15;100.00
48652;BME280;34442;52.362;-1.302;2023-04-10T05:39:32;99557.69;;;11.17;100.00
48652;BME280;34442;52.362;-1.302;2023-04-10T05:41:57;99546.81;;;11.12;100.00
48652;BME280;34442;52.362;-1.302;2023-04-10T05:44:26;99543.19;;;11.18;100.00
48652;BME280;34442;52.362;-1.302;2023-04-10T05:46:51;99550.53;;;11.11;100.00
48652;BME280;34442;52.362;-1.302;2023-04-10T05:49:16;99549.63;;;11.17;100.00
48652;BME280;34442;52.362;-1.302;2023-04-10T05:51:42;99547.19;;;11.15;100.00
48652;BME280;34442;52.362;-1.302;2023-04-10T05:54:07;99538.16;;;11.22;100.00
48652;BME280;34442;52.362;-1.302;2023-04-10T05:56:33;99544.13;;;11.12;100.00
48652;BME280;34442;52.362;-1.302;2023-04-10T05:58:58;99536.94;;;10.94;100.00
48652;BME280;34442;52.362;-1.302;2023-04-10T06:01:23;99534.59;;;10.98;100.00
48652;BME280;34442;52.362;-1.302;2023-04-10T06:03:49;99534.59;;;10.98;100.00
48652;BME280;34442;52.362;-1.302;2023-04-10T06:06:14;99531.72;;;10.99;100.00
48652;BME280;34442;52.362;-1.302;2023-04-10T06:08:40;99536.03;;;11.00;100.00
48652;BME280;34442;52.362;-1.302;2023-04-10T06:11:05;99536.03;;;11.00;100.00
48652;BME280;34442;52.362;-1.302;2023-04-10T06:13:31;99529.91;;;10.93;100.00
48652;BME280;34442;52.362;-1.302;2023-04-10T06:15:57;99529.59;;;11.01;100.00
48652;BME280;34442;52.362;-1.302;2023-04-10T06:18:26;99529.72;;;11.06;100.00
48652;BME280;34442;52.362;-1.302;2023-04-10T06:20:51;99537.09;;;10.99;100.00
48652;BME280;34442;52.362;-1.302;2023-04-10T06:23:16;99536.84;;;11.01;100.00
48652;BME280;34442;52.362;-1.302;2023-04-10T06:25:42;99523.50;;;11.06;100.00
48652;BME280;34442;52.362;-1.302;2023-04-10T06:28:07;99522.34;;;11.02;100.00
48652;BME280;34442;52.362;-1.302;2023-04-10T06:30:33;99519.66;;;11.02;100.00
48652;BME280;34442;52.362;-1.302;2023-04-10T06:32:59;99519.06;;;11.00;100.00
48652;BME280;34442;52.362;-1.302;2023-04-10T06:35:24;99518.25;;;10.99;100.00
48652;BME280;34442;52.362;-1.302;2023-04-10T06:37:50;99515.56;;;10.99;100.00
48652;BME280;34442;52.362;-1.302;2023-04-10T06:40:15;99512.19;;;11.04;100.00
48652;BME280;34442;52.362;-1.302;2023-04-10T06:42:40;99508.19;;;11.06;100.00
48652;BME280;34442;52.362;-1.302;2023-04-10T06:45:06;99503.50;;;11.02;100.00
48652;BME280;34442;52.362;-1.302;2023-04-10T06:47:32;99500.97;;;11.07;100.00
48652;BME280;34442;52.362;-1.302;2023-04-10T06:49:58;99496.25;;;11.02;100.00
48652;BME280;34442;52.362;-1.302;2023-04-10T06:52:23;99494.53;;;11.08;100.00
48652;BME280;34442;52.362;-1.302;2023-04-10T06:54:48;99489.16;;;11.08;100.00
48652;BME280;34442;52.362;-1.302;2023-04-10T06:57:14;99486.81;;;11.11;100.00
48652;BME280;34442;52.362;-1.302;2023-04-10T06:59:40;99487.41;;;11.13;100.00
48652;BME280;34442;52.362;-1.302;2023-04-10T07:02:06;99483.06;;;11.12;100.00
48652;BME280;34442;52.362;-1.302;2023-04-10T07:04:32;99480.50;;;11.17;100.00
48652;BME280;34442;52.362;-1.302;2023-04-10T07:06:57;99475.91;;;11.06;100.00
48652;BME280;34442;52.362;-1.302;2023-04-10T07:09:25;99480.59;;;11.11;100.00
48652;BME280;34442;52.362;-1.302;2023-04-10T07:11:51;99476.53;;;11.08;100.00
48652;BME280;34442;52.362;-1.302;2023-04-10T07:14:17;99474.28;;;11.05;100.00
48652;BME280;34442;52.362;-1.302;2023-04-10T07:16:43;99468.91;;;11.05;100.00
48652;BME280;34442;52.362;-1.302;2023-04-10T07:19:08;99473.47;;;11.05;100.00
48652;BME280;34442;52.362;-1.302;2023-04-10T07:21:33;99479.56;;;11.00;100.00
48652;BME280;34442;52.362;-1.302;2023-04-10T07:23:59;99473.94;;;11.02;100.00
48652;BME280;34442;52.362;-1.302;2023-04-10T07:26:24;99470.09;;;11.21;100.00
48652;BME280;34442;52.362;-1.302;2023-04-10T07:28:50;99469.16;;;11.27;100.00
48652;BME280;34442;52.362;-1.302;2023-04-10T07:31:15;99466.34;;;11.22;100.00
48652;BME280;34442;52.362;-1.302;2023-04-10T07:33:43;99451.03;;;11.23;100.00
48652;BME280;34442;52.362;-1.302;2023-04-10T07:36:09;99452.69;;;11.24;100.00
48652;BME280;34442;52.362;-1.302;2023-04-10T07:38:34;99445.88;;;11.21;100.00
48652;BME280;34442;52.362;-1.302;2023-04-10T07:41:00;99435.69;;;11.23;100.00
48652;BME280;34442;52.362;-1.302;2023-04-10T07:43:26;99433.59;;;11.25;100.00
48652;BME280;34442;52.362;-1.302;2023-04-10T07:45:51;99436.03;;;11.27;100.00
48652;BME280;34442;52.362;-1.302;2023-04-10T07:48:17;99434.88;;;11.34;100.00
48652;BME280;34442;52.362;-1.302;2023-04-10T07:50:42;99436.28;;;11.37;100.00
48652;BME280;34442;52.362;-1.302;2023-04-10T07:53:08;99420.72;;;11.39;100.00
48652;BME280;34442;52.362;-1.302;2023-04-10T07:55:37;99421.78;;;11.38;100.00
48652;BME280;34442;52.362;-1.302;2023-04-10T07:58:03;99409.50;;;11.42;100.00
48652;BME280;34442;52.362;-1.302;2023-04-10T08:00:28;99413.09;;;11.48;100.00
48652;BME280;34442;52.362;-1.302;2023-04-10T08:02:53;99416.75;;;11.41;100.00
48652;BME280;34442;52.362;-1.302;2023-04-10T08:05:19;99404.56;;;11.51;100.00
48652;BME280;34442;52.362;-1.302;2023-04-10T08:07:45;99405.28;;;11.46;100.00
48652;BME280;34442;52.362;-1.302;2023-04-10T08:10:11;99399.97;;;11.51;100.00
48652;BME280;34442;52.362;-1.302;2023-04-10T08:12:36;99398.13;;;11.52;100.00
48652;BME280;34442;52.362;-1.302;2023-04-10T08:15:02;99392.16;;;11.50;100.00
48652;BME280;34442;52.362;-1.302;2023-04-10T08:17:27;99382.66;;;11.59;100.00
48652;BME280;34442;52.362;-1.302;2023-04-10T08:19:52;99388.75;;;11.54;100.00
48652;BME280;34442;52.362;-1.302;2023-04-10T08:22:18;99385.81;;;11.56;100.00
48652;BME280;34442;52.362;-1.302;2023-04-10T08:24:43;99385.81;;;11.56;100.00
48652;BME280;34442;52.362;-1.302;2023-04-10T08:27:09;99389.34;;;11.56;100.00
48652;BME280;34442;52.362;-1.302;2023-04-10T08:29:34;99389.09;;;11.58;100.00
48652;BME280;34442;52.362;-1.302;2023-04-10T08:32:00;99388.03;;;11.59;100.00
48652;BME280;34442;52.362;-1.302;2023-04-10T08:34:26;99382.56;;;11.54;100.00
48652;BME280;34442;52.362;-1.302;2023-04-10T08:36:53;99382.19;;;11.62;100.00
48652;BME280;34442;52.362;-1.302;2023-04-10T08:39:18;99378.91;;;11.60;100.00
48652;BME280;34442;52.362;-1.302;2023-04-10T08:41:44;99388.13;;;11.64;100.00
48652;BME280;34442;52.362;-1.302;2023-04-10T08:44:10;99370.44;;;11.68;100.00
48652;BME280;34442;52.362;-1.302;2023-04-10T08:46:35;99372.56;;;11.66;100.00
48652;BME280;34442;52.362;-1.302;2023-04-10T08:49:09;99370.13;;;11.64;100.00
48652;BME280;34442;52.362;-1.302;2023-04-10T08:51:37;99371.28;;;11.68;100.00
48652;BME280;34442;52.362;-1.302;2023-04-10T08:54:10;99361.69;;;11.73;100.00
48652;BME280;34442;52.362;-1.302;2023-04-10T08:56:40;99359.56;;;11.75;100.00
48652;BME280;34442;52.362;-1.302;2023-04-10T08:59:07;99353.44;;;11.79;100.00
48652;BME280;34442;52.362;-1.302;2023-04-10T09:01:33;99348.31;;;11.78;100.00
48652;BME280;34442;52.362;-1.302;2023-04-10T09:04:00;99342.78;;;11.84;100.00
48652;BME280;34442;52.362;-1.302;2023-04-10T09:06:25;99341.25;;;11.88;100.00
48652;BME280;34442;52.362;-1.302;2023-04-10T09:08:58;99341.25;;;11.88;100.00
48652;BME280;34442;52.362;-1.302;2023-04-10T09:14:26;99341.25;;;11.88;100.00
48652;BME280;34442;52.362;-1.302;2023-04-10T09:17:06;99333.19;;;11.88;100.00
48652;BME280;34442;52.362;-1.302;2023-04-10T09:19:34;99341.25;;;11.88;100.00
48652;BME280;34442;52.362;-1.302;2023-04-10T09:22:00;99332.03;;;11.84;100.00
48652;BME280;34442;52.362;-1.302;2023-04-10T09:24:25;99320.22;;;11.85;100.00
48652;BME280;34442;52.362;-1.302;2023-04-10T09:26:51;99317.53;;;11.85;100.00
48652;BME280;34442;52.362;-1.302;2023-04-10T09:29:17;99313.66;;;11.81;100.00
48652;BME280;34442;52.362;-1.302;2023-04-10T09:31:42;99307.66;;;11.91;100.00
48652;BME280;34442;52.362;-1.302;2023-04-10T09:34:19;99297.31;;;12.00;100.00
48652;BME280;34442;52.362;-1.302;2023-04-10T09:36:56;99289.50;;;12.15;100.00
48652;BME280;34442;52.362;-1.302;2023-04-10T09:39:32;99285.00;;;12.21;100.00
48652;BME280;34442;52.362;-1.302;2023-04-10T09:41:58;99278.88;;;12.25;100.00
48652;BME280;34442;52.362;-1.302;2023-04-10T09:44:31;99279.28;;;12.34;100.00
48652;BME280;34442;52.362;-1.302;2023-04-10T09:46:57;99281.75;;;12.35;100.00
48652;BME280;34442;52.362;-1.302;2023-04-10T09:49:23;99279.47;;;12.27;100.00
48652;BME280;34442;52.362;-1.302;2023-04-10T09:51:48;99275.13;;;12.26;100.00
48652;BME280;34442;52.362;-1.302;2023-04-10T09:54:14;99264.84;;;12.23;100.00
48652;BME280;34442;52.362;-1.302;2023-04-10T09:56:40;99272.50;;;12.31;100.00
48652;BME280;34442;52.362;-1.302;2023-04-10T09:59:09;99257.22;;;12.37;100.00
48652;BME280;34442;52.362;-1.302;2023-04-10T10:01:38;99252.91;;;12.36;100.00
48652;BME280;34442;52.362;-1.302;2023-04-10T10:04:04;99245.72;;;12.41;100.00
48652;BME280;34442;52.362;-1.302;2023-04-10T10:06:31;99235.91;;;12.52;100.00
48652;BME280;34442;52.362;-1.302;2023-04-10T10:09:03;99232.03;;;12.65;100.00
48652;BME280;34442;52.362;-1.302;2023-04-10T10:11:33;99228.25;;;12.44;100.00
48652;BME280;34442;52.362;-1.302;2023-04-10T10:14:03;99223.50;;;12.51;100.00
48652;BME280;34442;52.362;-1.302;2023-04-10T10:21:30;99215.84;;;12.43;100.00
48652;BME280;34442;52.362;-1.302;2023-04-10T10:23:59;99210.34;;;12.38;100.00
48652;BME280;34442;52.362;-1.302;2023-04-10T10:26:27;99214.09;;;12.37;100.00
48652;BME280;34442;52.362;-1.302;2023-04-10T10:28:55;99211.66;;;12.35;100.00
48652;BME280;34442;52.362;-1.302;2023-04-10T10:31:20;99200.88;;;12.35;100.00
48652;BME280;34442;52.362;-1.302;2023-04-10T10:33:50;99215.66;;;12.33;100.00
48652;BME280;34442;52.362;-1.302;2023-04-10T10:36:18;99210.56;;;12.53;100.00
48652;BME280;34442;52.362;-1.302;2023-04-10T10:38:56;99204.00;;;12.66;100.00
48652;BME280;34442;52.362;-1.302;2023-04-10T10:41:40;99198.19;;;12.74;100.00
48652;BME280;34442;52.362;-1.302;2023-04-10T10:44:12;99183.28;;;12.88;100.00
48652;BME280;34442;52.362;-1.302;2023-04-10T10:46:46;99175.97;;;13.60;100.00
48652;BME280;34442;52.362;-1.302;2023-04-10T10:49:13;99164.03;;;13.56;100.00
48652;BME280;34442;52.362;-1.302;2023-04-10T10:51:47;99167.72;;;13.77;100.00
48652;BME280;34442;52.362;-1.302;2023-04-10T10:54:31;99178.78;;;14.07;100.00
48652;BME280;34442;52.362;-1.302;2023-04-10T10:56:58;99153.69;;;14.12;100.00
48652;BME280;34442;52.362;-1.302;2023-04-10T11:04:47;99160.94;;;13.42;100.00
48652;BME280;34442;52.362;-1.302;2023-04-10T11:07:14;99161.72;;;13.37;100.00
48652;BME280;34442;52.362;-1.302;2023-04-10T11:09:43;99145.13;;;13.56;100.00
48652;BME280;34442;52.362;-1.302;2023-04-10T11:12:10;99149.09;;;13.75;100.00
48652;BME280;34442;52.362;-1.302;2023-04-10T11:14:36;99136.41;;;13.76;100.00
48652;BME280;34442;52.362;-1.302;2023-04-10T11:17:02;99138.59;;;13.79;100.00
48652;BME280;34442;52.362;-1.302;2023-04-10T11:19:28;99129.59;;;13.41;100.00
48652;BME280;34442;52.362;-1.302;2023-04-10T11:22:01;99132.41;;;13.24;100.00
48652;BME280;34442;52.362;-1.302;2023-04-10T11:24:28;99139.94;;;13.22;100.00
48652;BME280;34442;52.362;-1.302;2023-04-10T11:26:54;99124.44;;;13.34;100.00
48652;BME280;34442;52.362;-1.302;2023-04-10T11:31:56;99134.78;;;13.21;100.00
48652;BME280;34442;52.362;-1.302;2023-04-10T11:34:23;99135.31;;;13.18;100.00
48652;BME280;34442;52.362;-1.302;2023-04-10T11:36:48;99124.25;;;13.19;100.00
48652;BME280;34442;52.362;-1.302;2023-04-10T11:39:15;99108.03;;;13.19;100.00
48652;BME280;34442;52.362;-1.302;2023-04-10T11:41:44;99108.56;;;13.43;100.00
48652;BME280;34442;52.362;-1.302;2023-04-10T11:44:14;99099.06;;;13.68;100.00
48652;BME280;34442;52.362;-1.302;2023-04-10T11:46:42;99102.31;;;13.70;100.00
48652;BME280;34442;52.362;-1.302;2023-04-10T11:49:11;99100.03;;;13.88;100.00
48652;BME280;34442;52.362;-1.302;2023-04-10T11:51:38;99081.25;;;14.09;100.00
48652;BME280;34442;52.362;-1.302;2023-04-10T11:54:10;99089.50;;;13.92;100.00
48652;BME280;34442;52.362;-1.302;2023-04-10T11:56:38;99085.88;;;13.76;100.00
48652;BME280;34442;52.362;-1.302;2023-04-10T11:59:04;99089.47;;;13.87;100.00
48652;BME280;34442;52.362;-1.302;2023-04-10T12:01:32;99105.22;;;13.58;100.00
48652;BME280;34442;52.362;-1.302;2023-04-10T12:03:58;99121.59;;;12.53;100.00
48652;BME280;34442;52.362;-1.302;2023-04-10T12:06:24;99122.88;;;12.07;100.00
48652;BME280;34442;52.362;-1.302;2023-04-10T12:08:50;99132.19;;;11.99;100.00
48652;BME280;34442;52.362;-1.302;2023-04-10T12:11:20;99126.06;;;11.87;100.00
48652;BME280;34442;52.362;-1.302;2023-04-10T12:13:47;99119.28;;;12.18;100.00
48652;BME280;34442;52.362;-1.302;2023-04-10T12:16:13;99126.34;;;12.24;100.00
48652;BME280;34442;52.362;-1.302;2023-04-10T12:18:38;99116.09;;;12.43;100.00
48652;BME280;34442;52.362;-1.302;2023-04-10T12:21:05;99138.22;;;12.67;100.00
48652;BME280;34442;52.362;-1.302;2023-04-10T12:23:31;99140.47;;;12.75;100.00
48652;BME280;34442;52.362;-1.302;2023-04-10T12:26:16;99134.63;;;12.83;100.00
48652;BME280;34442;52.362;-1.302;2023-04-10T12:28:50;99128.56;;;12.71;100.00
48652;BME280;34442;52.362;-1.302;2023-04-10T12:31:16;99131.34;;;12.76;100.00
48652;BME280;34442;52.362;-1.302;2023-04-10T12:33:47;99131.94;;;12.83;100.00
48652;BME280;34442;52.362;-1.302;2023-04-10T12:36:20;99115.94;;;12.55;100.00
48652;BME280;34442;52.362;-1.302;2023-04-10T12:38:46;99116.16;;;12.48;100.00
48652;BME280;34442;52.362;-1.302;2023-04-10T12:41:11;99113.47;;;12.48;100.00
48652;BME280;34442;52.362;-1.302;2023-04-10T12:43:41;99112.97;;;12.51;100.00
48652;BME280;34442;52.362;-1.302;2023-04-10T12:46:08;99117.84;;;12.54;100.00
48652;BME280;34442;52.362;-1.302;2023-04-10T12:48:34;99119.19;;;12.52;100.00
48652;BME280;34442;52.362;-1.302;2023-04-10T12:51:00;99105.91;;;12.28;100.00
48652;BME280;34442;52.362;-1.302;2023-04-10T12:53:26;99122.50;;;12.20;100.00
48652;BME280;34442;52.362;-1.302;2023-04-10T12:58:25;99097.22;;;12.65;100.00
48652;BME280;34442;52.362;-1.302;2023-04-10T13:00:57;99095.47;;;12.54;100.00
48652;BME280;34442;52.362;-1.302;2023-04-10T13:03:23;99108.06;;;12.70;100.00